Time;durP1;ratioP1;P1;durP2;ratioP2;P2;SDS_P1;SDS_P2;PMS_P1;PMS_P2;Temp;Humidity;BMP_temperature;BMP_pressure;BME280_temperature;BME280_humidity;BME280_pressure;Samples;Min_cycle;Max_cycle;Signal;HPM_P1;HPM_P2
2022/10/12 00:00:14;;;;;;;13.80;4.80;;;;;;;7.29;80.55;100792.72;5032829;28;20036;-83
2022/10/12 00:02:40;;;;;;;16.02;5.80;;;;;;;7.24;81.99;100795.25;5030884;28;20274;-83
2022/10/12 00:05:05;;;;;;;17.15;6.50;;;;;;;7.48;80.32;100798.25;5032452;28;20029;-83
2022/10/12 00:07:30;;;;;;;9.52;5.00;;;;;;;7.24;80.06;100792.56;5032872;28;20037;-84
2022/10/12 00:09:56;;;;;;;11.57;5.00;;;;;;;7.23;81.25;100782.72;5032699;28;20065;-83
2022/10/12 00:12:21;;;;;;;8.30;4.27;;;;;;;7.21;81.38;100790.25;5031946;28;20397;-83
2022/10/12 00:14:46;;;;;;;10.20;4.90;;;;;;;6.86;82.35;100795.00;5032695;28;20316;-83
2022/10/12 00:17:11;;;;;;;11.65;4.55;;;;;;;6.39;84.38;100792.41;5032157;28;20850;-83
2022/10/12 00:19:37;;;;;;;9.43;3.65;;;;;;;6.51;84.65;100795.31;5031051;28;20152;-83
2022/10/12 00:22:03;;;;;;;9.60;4.38;;;;;;;7.00;82.04;100784.09;5032237;28;20034;-83
2022/10/12 00:24:28;;;;;;;14.27;4.97;;;;;;;7.06;81.06;100782.41;5032291;28;20037;-84
2022/10/12 00:26:53;;;;;;;12.45;3.88;;;;;;;7.07;81.46;100790.34;5032071;28;20053;-84
2022/10/12 00:29:19;;;;;;;10.43;4.53;;;;;;;7.12;81.13;100779.66;5032532;28;20467;-83
2022/10/12 00:31:44;;;;;;;9.50;3.47;;;;;;;7.11;80.45;100785.31;5030871;28;20029;-83
2022/10/12 00:34:09;;;;;;;10.53;4.13;;;;;;;7.34;79.98;100792.88;5031485;28;20786;-83
2022/10/12 00:36:34;;;;;;;12.35;3.88;;;;;;;7.44;79.58;100784.28;5032352;28;20270;-83
2022/10/12 00:39:01;;;;;;;18.13;5.88;;;;;;;7.34;78.94;100782.03;5032159;28;20040;-83
2022/10/12 00:41:30;;;;;;;9.20;4.30;;;;;;;7.09;80.05;100792.81;5031904;28;20033;-83
2022/10/12 00:43:56;;;;;;;7.47;3.80;;;;;;;7.21;78.99;100791.09;5031089;28;20191;-84
2022/10/12 00:46:24;;;;;;;8.77;3.58;;;;;;;6.88;80.77;100787.50;5031782;28;20101;-84
2022/10/12 00:48:56;;;;;;;7.85;4.00;;;;;;;6.71;81.78;100786.31;5031957;28;20471;-83
2022/10/12 00:51:22;;;;;;;16.45;4.72;;;;;;;7.00;80.97;100786.81;5031828;28;20129;-83
2022/10/12 00:53:54;;;;;;;21.80;4.65;;;;;;;7.36;79.56;100784.56;5029857;28;20131;-83
2022/10/12 00:56:23;;;;;;;9.02;3.47;;;;;;;7.36;79.61;100793.50;5031765;28;20034;-83
2022/10/12 00:58:49;;;;;;;11.13;6.72;;;;;;;7.14;80.37;100792.19;5031510;28;20029;-83
2022/10/12 01:01:16;;;;;;;9.95;4.95;;;;;;;7.03;81.37;100789.09;5031924;28;20034;-83
2022/10/12 01:03:42;;;;;;;6.65;3.88;;;;;;;6.95;80.49;100792.91;5028729;28;20474;-83
2022/10/12 01:06:08;;;;;;;10.82;4.60;;;;;;;7.00;80.97;100790.34;5031049;28;20559;-83
2022/10/12 01:08:33;;;;;;;20.05;4.95;;;;;;;6.63;81.93;100781.97;5031111;28;20057;-83
2022/10/12 01:10:59;;;;;;;11.85;5.38;;;;;;;6.27;84.19;100797.66;5031377;28;20059;-83
2022/10/12 01:13:25;;;;;;;13.48;4.00;;;;;;;6.48;83.91;100795.75;5030356;28;20037;-84
2022/10/12 01:16:03;;;;;;;11.38;4.80;;;;;;;6.77;82.63;100790.88;5031425;28;20025;-83
2022/10/12 01:18:59;;;;;;;11.65;5.30;;;;;;;6.64;83.97;100791.75;5030719;28;20029;-83
2022/10/12 01:21:25;;;;;;;11.05;5.93;;;;;;;6.98;81.97;100786.19;5011141;28;20036;-83
2022/10/12 01:24:02;;;;;;;11.40;3.92;;;;;;;7.04;81.14;100785.31;5025435;28;20379;-83
2022/10/12 01:26:41;;;;;;;11.02;4.32;;;;;;;6.95;81.45;100776.63;5031099;28;20025;-82
2022/10/12 01:29:25;;;;;;;11.38;4.72;;;;;;;6.91;80.91;100774.56;5030899;28;20497;-82
2022/10/12 01:32:16;;;;;;;15.15;7.20;;;;;;;6.65;81.78;100777.97;5031178;28;20111;-83
2022/10/12 01:34:54;;;;;;;16.58;7.25;;;;;;;6.42;82.28;100775.75;5030868;28;20159;-83
2022/10/12 01:37:51;;;;;;;12.10;5.50;;;;;;;6.69;82.96;100772.13;5030969;28;20056;-83
2022/10/12 01:40:30;;;;;;;10.15;5.80;;;;;;;6.70;82.99;100765.66;5030543;28;20049;-83
2022/10/12 01:42:56;;;;;;;9.32;4.80;;;;;;;6.82;81.70;100760.41;5029953;28;20120;-83
2022/10/12 01:45:22;;;;;;;10.45;4.18;;;;;;;7.24;79.99;100762.72;5031179;28;20034;-83
2022/10/12 01:47:51;;;;;;;9.57;3.63;;;;;;;6.91;80.82;100769.97;5030700;28;20045;-82
2022/10/12 01:50:20;;;;;;;8.50;3.50;;;;;;;6.95;81.24;100754.09;5045889;28;20045;-83
2022/10/12 01:53:11;;;;;;;8.10;3.70;;;;;;;6.69;81.90;100761.31;5028561;28;20037;-83
2022/10/12 01:55:56;;;;;;;7.00;3.50;;;;;;;6.86;81.18;100757.06;5030932;28;20061;-83
2022/10/12 01:59:03;;;;;;;13.25;4.53;;;;;;;6.93;80.69;100745.34;5030423;28;20087;-83
2022/10/12 02:01:46;;;;;;;8.18;4.18;;;;;;;6.58;82.27;100750.06;5030387;28;20112;-83
2022/10/12 02:04:20;;;;;;;8.35;3.38;;;;;;;6.19;83.58;100750.81;5028344;28;20048;-83
2022/10/12 02:06:55;;;;;;;10.90;4.18;;;;;;;6.54;82.99;100743.41;5030216;28;20041;-83
2022/10/12 02:09:27;;;;;;;12.23;4.88;;;;;;;6.71;81.66;100742.94;5030747;28;20045;-83
2022/10/12 02:11:56;;;;;;;14.00;5.15;;;;;;;6.85;81.59;100741.84;5031168;28;20122;-83
2022/10/12 02:14:37;;;;;;;10.20;3.83;;;;;;;7.19;79.75;100738.09;5027397;28;20160;-83
2022/10/12 02:17:07;;;;;;;8.75;4.55;;;;;;;7.51;77.71;100729.94;5030016;28;20029;-82
2022/10/12 02:19:39;;;;;;;10.90;4.22;;;;;;;6.80;80.40;100741.66;5030308;28;20404;-83
2022/10/12 02:22:07;;;;;;;14.07;4.68;;;;;;;7.12;79.34;100740.84;5030090;28;20029;-83
2022/10/12 02:24:35;;;;;;;8.75;3.30;;;;;;;6.81;80.56;100751.44;5029259;28;20025;-83
2022/10/12 02:27:02;;;;;;;8.57;3.50;;;;;;;6.74;80.47;100742.50;5030328;28;20026;-83
2022/10/12 02:29:36;;;;;;;19.65;4.50;;;;;;;6.86;80.66;100735.38;5028800;28;20052;-83
2022/10/12 02:32:12;;;;;;;11.32;4.50;;;;;;;6.77;81.00;100740.19;5029254;28;20477;-84
2022/10/12 02:34:49;;;;;;;7.88;3.88;;;;;;;6.57;80.68;100732.13;5029415;28;20482;-84
2022/10/12 02:37:37;;;;;;;14.35;5.32;;;;;;;6.56;81.01;100735.06;5030144;28;20055;-84
2022/10/12 02:40:31;;;;;;;12.32;4.05;;;;;;;6.85;80.14;100727.44;5029651;28;20495;-83
2022/10/12 02:43:12;;;;;;;12.27;6.57;;;;;;;6.86;79.86;100727.22;5027287;28;20041;-84
2022/10/12 02:45:43;;;;;;;8.73;4.25;;;;;;;6.97;78.19;100720.31;5034087;28;20507;-85
2022/10/12 02:48:12;;;;;;;8.07;4.75;;;;;;;6.72;79.21;100717.50;5033458;28;20041;-84
2022/10/12 02:50:38;;;;;;;17.50;5.07;;;;;;;6.96;79.31;100723.22;5034191;28;20025;-83
2022/10/12 02:53:04;;;;;;;11.48;3.65;;;;;;;7.34;77.19;100714.22;5032532;28;20056;-83
2022/10/12 02:55:30;;;;;;;8.30;3.40;;;;;;;7.26;77.18;100700.09;5033803;28;20035;-83
2022/10/12 02:57:55;;;;;;;7.65;3.55;;;;;;;7.26;77.00;100700.91;5034239;28;20021;-83
2022/10/12 03:00:21;;;;;;;9.80;3.80;;;;;;;6.79;78.92;100699.34;5034021;28;20067;-84
2022/10/12 03:02:46;;;;;;;8.02;3.28;;;;;;;6.60;80.86;100688.38;5031205;28;20048;-83
2022/10/12 03:05:11;;;;;;;11.60;4.75;;;;;;;6.18;82.19;100688.72;5032981;28;20080;-83
2022/10/12 03:07:36;;;;;;;10.73;4.93;;;;;;;6.13;83.13;100692.06;5033856;28;20083;-82
2022/10/12 03:10:02;;;;;;;11.27;5.00;;;;;;;6.50;82.41;100699.66;5033689;28;20267;-82
2022/10/12 03:12:27;;;;;;;10.23;5.05;;;;;;;6.53;82.00;100698.38;5032109;28;20267;-82
2022/10/12 03:14:52;;;;;;;11.13;3.47;;;;;;;6.77;80.98;100698.72;5033523;28;20120;-82
2022/10/12 03:17:18;;;;;;;17.30;3.93;;;;;;;6.93;79.68;100696.53;5033800;28;20250;-83
2022/10/12 03:19:43;;;;;;;9.53;4.53;;;;;;;6.81;81.36;100694.53;5033376;28;20344;-83
2022/10/12 03:22:08;;;;;;;7.90;4.13;;;;;;;6.51;82.39;100701.31;5033130;28;20267;-83
2022/10/12 03:24:33;;;;;;;9.20;4.27;;;;;;;6.50;81.19;100698.84;5032669;28;20478;-83
2022/10/12 03:26:59;;;;;;;10.63;4.33;;;;;;;6.45;81.21;100698.66;5033186;28;20259;-83
2022/10/12 03:29:24;;;;;;;10.10;4.73;;;;;;;6.36;79.91;100698.88;5033335;28;20291;-83
2022/10/12 03:31:49;;;;;;;15.47;4.30;;;;;;;6.01;82.63;100694.56;5033524;28;20652;-83
2022/10/12 03:34:14;;;;;;;7.67;4.40;;;;;;;6.40;82.37;100699.28;5031214;28;20372;-83
2022/10/12 03:36:40;;;;;;;18.15;6.53;;;;;;;6.32;81.95;100697.66;5032990;28;20398;-82
2022/10/12 03:39:05;;;;;;;10.82;4.38;;;;;;;6.74;79.74;100691.84;5033113;28;20104;-83
2022/10/12 03:41:30;;;;;;;9.33;4.27;;;;;;;6.56;79.62;100695.25;5033441;28;20100;-83
2022/10/12 03:43:56;;;;;;;14.65;4.63;;;;;;;6.92;78.10;100684.88;5032972;28;20266;-83
2022/10/12 03:46:21;;;;;;;10.25;4.75;;;;;;;6.82;78.57;100687.22;5033063;28;20491;-83
2022/10/12 03:48:46;;;;;;;8.43;3.90;;;;;;;6.30;79.99;100678.88;5033156;28;20054;-83
2022/10/12 03:51:11;;;;;;;10.53;5.37;;;;;;;6.27;81.52;100681.19;5032387;28;20263;-83
2022/10/12 03:53:37;;;;;;;7.93;3.60;;;;;;;6.19;81.04;100674.97;5031265;28;20301;-82
2022/10/12 03:56:02;;;;;;;9.00;3.90;;;;;;;6.11;81.00;100677.91;5033134;28;20021;-83
2022/10/12 03:58:27;;;;;;;7.47;3.95;;;;;;;5.84;83.21;100683.34;5033131;28;20064;-84
2022/10/12 04:00:53;;;;;;;7.90;3.58;;;;;;;5.57;83.95;100684.19;5033226;28;20025;-82
2022/10/12 04:03:19;;;;;;;10.70;3.78;;;;;;;5.75;84.53;100687.31;5031041;28;20029;-83
2022/10/12 04:05:52;;;;;;;10.07;4.55;;;;;;;6.22;81.58;100675.59;5032838;28;20034;-84
2022/10/12 04:08:17;;;;;;;7.07;3.05;;;;;;;6.31;80.09;100685.13;5032719;28;20031;-84
2022/10/12 04:10:43;;;;;;;7.20;3.08;;;;;;;5.60;84.45;100677.53;5032780;28;20060;-83
2022/10/12 04:13:08;;;;;;;7.78;3.28;;;;;;;6.07;81.93;100674.81;5030656;28;20069;-83
2022/10/12 04:15:33;;;;;;;5.37;2.77;;;;;;;6.40;80.04;100677.63;5032704;28;20064;-84
2022/10/12 04:17:58;;;;;;;8.60;3.40;;;;;;;5.96;82.77;100676.25;5032167;28;20264;-83
2022/10/12 04:20:24;;;;;;;8.13;3.33;;;;;;;6.26;81.25;100671.41;5032906;28;20340;-84
2022/10/12 04:22:49;;;;;;;7.07;2.70;;;;;;;6.57;79.21;100667.09;5030744;28;20274;-83
2022/10/12 04:25:14;;;;;;;7.83;3.83;;;;;;;6.57;78.59;100667.09;5032140;28;20466;-84
2022/10/12 04:27:39;;;;;;;11.40;5.30;;;;;;;6.25;79.66;100669.72;5031131;28;20337;-84
2022/10/12 04:30:05;;;;;;;15.68;4.43;;;;;;;5.98;81.63;100667.91;5032336;28;20037;-83
2022/10/12 04:32:31;;;;;;;6.80;3.05;;;;;;;5.81;82.87;100672.94;5030784;28;20037;-82
2022/10/12 04:34:56;;;;;;;14.45;3.40;;;;;;;6.37;80.95;100673.44;5031732;28;20048;-83
2022/10/12 04:37:21;;;;;;;9.00;3.87;;;;;;;6.53;80.40;100660.44;5032219;28;20071;-84
2022/10/12 04:39:46;;;;;;;9.30;3.65;;;;;;;6.48;80.63;100663.81;5032629;28;20262;-84
2022/10/12 04:42:12;;;;;;;10.77;4.05;;;;;;;6.89;79.05;100659.00;5047331;28;20068;-82
2022/10/12 04:44:37;;;;;;;8.10;3.83;;;;;;;6.67;79.41;100663.97;5031580;28;20064;-83
2022/10/12 04:47:02;;;;;;;8.07;3.80;;;;;;;6.62;80.35;100664.59;5031766;28;20275;-83
2022/10/12 04:49:27;;;;;;;14.18;4.55;;;;;;;6.11;81.67;100668.94;5031242;28;20748;-83
2022/10/12 04:51:53;;;;;;;10.63;4.32;;;;;;;5.63;85.51;100668.19;5031652;28;20036;-83
2022/10/12 04:54:18;;;;;;;8.85;3.53;;;;;;;5.98;84.12;100672.50;5030501;28;20033;-83
2022/10/12 04:56:43;;;;;;;12.65;3.90;;;;;;;5.79;85.61;100666.91;5031626;28;20060;-83
2022/10/12 04:59:09;;;;;;;11.80;4.55;;;;;;;6.28;83.53;100669.31;5031653;28;20040;-83
2022/10/12 05:01:34;;;;;;;9.02;2.70;;;;;;;6.17;84.92;100668.94;5031614;28;20033;-83
2022/10/12 05:03:59;;;;;;;13.60;3.45;;;;;;;6.39;83.53;100665.94;5029378;28;20041;-84
2022/10/12 05:06:25;;;;;;;12.53;3.80;;;;;;;6.58;82.71;100660.66;5030708;28;20473;-83
2022/10/12 05:08:50;;;;;;;10.38;4.15;;;;;;;6.34;83.24;100656.78;5031508;28;20270;-84
2022/10/12 05:11:15;;;;;;;9.82;4.07;;;;;;;6.68;82.39;100653.94;5031346;28;20033;-84
2022/10/12 05:13:41;;;;;;;9.60;3.40;;;;;;;6.77;81.30;100647.22;5030352;28;20053;-83
2022/10/12 05:16:06;;;;;;;6.10;2.95;;;;;;;6.45;83.48;100649.88;5031044;28;20045;-83
2022/10/12 05:18:31;;;;;;;9.77;4.40;;;;;;;6.51;82.34;100649.84;5031270;28;20033;-83
2022/10/12 05:20:56;;;;;;;9.83;3.93;;;;;;;5.83;85.71;100644.63;5031444;28;20112;-83
2022/10/12 05:23:22;;;;;;;11.17;4.57;;;;;;;5.88;86.61;100646.69;5029514;28;20659;-83
2022/10/12 05:25:47;;;;;;;13.57;4.67;;;;;;;6.06;85.18;100645.25;5032325;28;20305;-83
2022/10/12 05:28:12;;;;;;;13.23;4.13;;;;;;;6.25;85.29;100642.66;5031139;28;20281;-83
2022/10/12 05:30:38;;;;;;;9.90;3.13;;;;;;;6.33;83.12;100642.41;5031042;28;20031;-83
2022/10/12 05:33:03;;;;;;;8.75;2.97;;;;;;;6.31;84.79;100644.50;5030669;28;20278;-83
2022/10/12 05:35:28;;;;;;;12.77;4.35;;;;;;;7.12;80.73;100641.34;5031572;28;20512;-83
2022/10/12 05:37:53;;;;;;;15.10;4.05;;;;;;;7.33;78.81;100647.44;5031117;28;20030;-83
2022/10/12 05:40:19;;;;;;;11.60;4.53;;;;;;;7.01;80.28;100642.06;5030971;28;20033;-83
2022/10/12 05:42:44;;;;;;;11.18;5.80;;;;;;;7.25;79.81;100647.72;5030466;28;20029;-83
2022/10/12 05:45:10;;;;;;;10.73;3.95;;;;;;;6.83;80.24;100656.34;5030893;28;20055;-83
2022/10/12 05:47:35;;;;;;;10.73;3.25;;;;;;;6.22;82.72;100656.63;5030768;28;20081;-82
2022/10/12 05:50:01;;;;;;;10.00;3.20;;;;;;;6.45;81.83;100655.31;5030848;28;20041;-83
2022/10/12 05:52:26;;;;;;;7.53;3.03;;;;;;;6.05;83.45;100666.03;5030402;28;20271;-83
2022/10/12 05:54:51;;;;;;;16.60;5.13;;;;;;;6.52;82.09;100662.34;5030776;28;20036;-83
2022/10/12 05:57:16;;;;;;;13.43;5.30;;;;;;;6.35;81.94;100670.13;5030362;28;20266;-83
2022/10/12 05:59:42;;;;;;;8.53;3.53;;;;;;;5.84;82.90;100664.38;5030547;28;20259;-83
2022/10/12 06:02:12;;;;;;;13.07;4.80;;;;;;;5.51;86.31;100667.97;5030178;28;20254;-83
2022/10/12 06:04:37;;;;;;;6.85;3.50;;;;;;;5.72;84.97;100672.31;5029516;28;20033;-83
2022/10/12 06:07:03;;;;;;;9.40;4.57;;;;;;;5.90;83.35;100677.09;5030215;28;20494;-82
2022/10/12 06:09:28;;;;;;;9.35;4.07;;;;;;;5.91;84.75;100673.34;5030492;28;20032;-84
2022/10/12 06:11:53;;;;;;;13.15;4.75;;;;;;;6.06;82.87;100672.31;5030955;28;20105;-83
2022/10/12 06:14:19;;;;;;;11.98;3.88;;;;;;;6.15;83.47;100678.31;5013784;28;20033;-83
2022/10/12 06:16:44;;;;;;;9.83;5.80;;;;;;;6.07;83.35;100679.38;5010182;28;20044;-82
2022/10/12 06:19:10;;;;;;;15.53;5.47;;;;;;;6.22;82.81;100672.88;5023995;28;20263;-83
2022/10/12 06:21:36;;;;;;;7.90;4.22;;;;;;;6.46;80.92;100673.22;5019317;28;20267;-83
2022/10/12 06:24:01;;;;;;;13.00;4.30;;;;;;;6.46;81.07;100674.06;5026914;28;20047;-82
2022/10/12 06:26:26;;;;;;;14.48;6.32;;;;;;;6.73;79.89;100675.81;5026984;28;20088;-83
2022/10/12 06:28:52;;;;;;;11.50;5.57;;;;;;;6.48;80.50;100676.53;5011857;28;20037;-82
2022/10/12 06:31:17;;;;;;;15.52;4.55;;;;;;;6.54;80.62;100679.22;5010143;28;20057;-83
2022/10/12 06:33:42;;;;;;;11.63;5.57;;;;;;;6.24;82.94;100678.91;5024375;28;20380;-83
2022/10/12 06:36:07;;;;;;;12.27;4.40;;;;;;;6.48;81.00;100679.25;5029635;28;20108;-84
2022/10/12 06:38:33;;;;;;;12.65;4.38;;;;;;;6.36;80.84;100679.09;5030258;28;20120;-84
2022/10/12 06:40:58;;;;;;;9.13;4.15;;;;;;;6.07;82.51;100687.50;5023259;28;20459;-83
2022/10/12 06:43:23;;;;;;;13.67;4.43;;;;;;;6.28;82.70;100680.16;5017795;28;20061;-84
2022/10/12 06:45:49;;;;;;;15.07;5.18;;;;;;;6.62;81.62;100677.31;5027322;28;20311;-83
2022/10/12 06:48:14;;;;;;;10.13;3.78;;;;;;;6.93;80.15;100680.28;5029147;28;20103;-83
2022/10/12 06:50:39;;;;;;;6.88;3.63;;;;;;;7.18;79.64;100684.94;5019072;28;20482;-82
2022/10/12 06:53:05;;;;;;;11.02;4.50;;;;;;;7.30;78.64;100679.63;5019315;28;20398;-84
2022/10/12 06:55:30;;;;;;;10.48;3.95;;;;;;;7.33;79.43;100673.75;5029739;28;20116;-84
2022/10/12 06:57:56;;;;;;;15.90;4.50;;;;;;;7.51;79.06;100681.09;5030061;28;20049;-83
2022/10/12 07:00:21;;;;;;;8.65;3.83;;;;;;;7.51;79.60;100675.69;5030285;28;20037;-84
2022/10/12 07:02:50;;;;;;;6.97;3.25;;;;;;;7.48;79.52;100679.66;5023866;28;20459;-84
2022/10/12 07:05:16;;;;;;;7.25;3.63;;;;;;;7.67;79.52;100674.28;5018945;28;20025;-84
2022/10/12 07:07:42;;;;;;;9.63;4.00;;;;;;;7.91;78.97;100668.22;5020334;28;20072;-89
2022/10/12 07:10:08;;;;;;;10.07;4.40;;;;;;;8.21;77.62;100662.06;5019931;28;21073;-83
2022/10/12 07:12:37;;;;;;;8.20;4.03;;;;;;;8.33;76.61;100661.28;5023211;28;20562;-83
2022/10/12 07:15:04;;;;;;;9.57;4.35;;;;;;;8.33;75.85;100670.28;5029225;28;20029;-86
2022/10/12 07:17:29;;;;;;;13.35;4.00;;;;;;;7.78;78.97;100659.16;5029282;28;20029;-86
2022/10/12 07:19:54;;;;;;;12.87;5.53;;;;;;;8.13;78.12;100659.63;5029427;28;20040;-83
2022/10/12 07:22:19;;;;;;;9.33;5.03;;;;;;;8.06;78.02;100663.25;5028159;28;20270;-84
2022/10/12 07:24:45;;;;;;;13.93;5.38;;;;;;;8.35;77.58;100672.75;5010893;28;20294;-83
2022/10/12 07:27:10;;;;;;;13.53;7.20;;;;;;;8.28;77.24;100660.06;5009755;28;20033;-84
2022/10/12 07:29:37;;;;;;;12.82;7.38;;;;;;;8.45;77.49;100659.47;5011600;28;20588;-85
2022/10/12 07:32:03;;;;;;;18.05;8.50;;;;;;;8.51;76.09;100664.00;5015640;28;20427;-85
2022/10/12 07:34:28;;;;;;;15.18;6.80;;;;;;;8.54;76.34;100657.28;5032346;28;20126;-85
2022/10/12 07:36:54;;;;;;;20.05;6.30;;;;;;;8.69;76.20;100672.34;5033539;28;20029;-85
2022/10/12 07:39:21;;;;;;;18.10;6.72;;;;;;;8.74;75.93;100654.31;5032809;28;20022;-87
2022/10/12 07:41:46;;;;;;;10.95;5.63;;;;;;;8.37;77.36;100665.22;5033730;28;20034;-84
2022/10/12 07:44:12;;;;;;;17.70;5.43;;;;;;;8.36;78.41;100666.28;5032093;28;20052;-85
2022/10/12 07:46:37;;;;;;;15.75;5.95;;;;;;;8.60;77.27;100664.50;5033599;28;20037;-85
2022/10/12 07:49:03;;;;;;;13.50;6.47;;;;;;;8.70;76.94;100668.59;5033581;28;20036;-85
2022/10/12 07:51:28;;;;;;;13.82;7.85;;;;;;;8.89;76.34;100666.66;5033519;28;20299;-85
2022/10/12 07:53:53;;;;;;;16.05;6.18;;;;;;;8.68;77.02;100670.72;5031580;28;20040;-85
2022/10/12 07:56:19;;;;;;;15.37;6.27;;;;;;;8.89;77.29;100668.56;5033330;28;20041;-87
2022/10/12 07:58:52;;;;;;;18.60;7.97;;;;;;;8.97;76.80;100657.34;5033348;28;20298;-84
2022/10/12 08:01:19;;;;;;;15.98;6.18;;;;;;;9.41;74.34;100657.09;5033074;28;20259;-85
2022/10/12 08:03:44;;;;;;;10.20;3.47;;;;;;;9.45;73.73;100658.28;5031748;28;20037;-84
2022/10/12 08:06:11;;;;;;;11.48;6.13;;;;;;;9.59;73.18;100658.03;5032983;28;20047;-84
2022/10/12 08:08:37;;;;;;;12.05;4.93;;;;;;;9.60;73.74;100659.66;5033089;28;20044;-85
2022/10/12 08:11:05;;;;;;;11.30;4.18;;;;;;;9.63;73.59;100653.78;5031427;28;20021;-85
2022/10/12 08:13:32;;;;;;;15.88;5.55;;;;;;;9.72;72.84;100656.97;5031487;28;20068;-84
2022/10/12 08:15:58;;;;;;;9.10;3.90;;;;;;;9.90;72.28;100655.19;5032967;28;20045;-85
2022/10/12 08:18:23;;;;;;;14.88;5.50;;;;;;;10.05;71.98;100662.84;5032042;28;20055;-83
2022/10/12 08:20:48;;;;;;;19.95;7.88;;;;;;;10.21;71.48;100660.47;5032986;28;20025;-84
2022/10/12 08:23:14;;;;;;;15.07;6.83;;;;;;;10.35;70.94;100664.56;5030866;28;20037;-84
2022/10/12 08:25:39;;;;;;;13.60;4.93;;;;;;;10.41;70.48;100657.34;5032945;28;20573;-85
2022/10/12 08:28:04;;;;;;;12.95;5.63;;;;;;;10.52;70.73;100663.84;5032675;28;20278;-85
2022/10/12 08:30:30;;;;;;;18.65;4.18;;;;;;;10.56;70.21;100659.56;5032416;28;20044;-86
2022/10/12 08:32:55;;;;;;;13.93;4.60;;;;;;;10.57;72.09;100671.31;5032563;28;20114;-84
2022/10/12 08:35:20;;;;;;;17.90;8.73;;;;;;;10.70;70.22;100664.75;5032500;28;20262;-86
2022/10/12 08:37:45;;;;;;;19.80;9.38;;;;;;;10.78;69.79;100655.34;5032341;28;20124;-86
2022/10/12 08:40:24;;;;;;;20.60;8.30;;;;;;;10.85;70.16;100662.28;5031621;28;20169;-85
2022/10/12 08:42:55;;;;;;;15.82;7.35;;;;;;;10.90;70.39;100655.28;5031210;28;20278;-90
2022/10/12 08:45:40;;;;;;;11.90;4.47;;;;;;;10.95;69.97;100655.34;5032586;28;20079;-87
2022/10/12 08:48:17;;;;;;;11.57;5.18;;;;;;;10.98;69.93;100652.16;5031577;28;20145;-86
2022/10/12 08:50:52;;;;;;;16.55;5.28;;;;;;;11.02;70.46;100650.59;5032575;28;20025;-87
2022/10/12 08:53:27;;;;;;;14.77;6.07;;;;;;;11.01;71.04;100653.53;5032033;28;20120;-86
2022/10/12 08:55:52;;;;;;;13.50;5.07;;;;;;;11.03;71.39;100652.22;5033233;28;20474;-84
2022/10/12 08:58:28;;;;;;;11.15;5.10;;;;;;;10.95;72.03;100656.19;5034551;28;20075;-86
2022/10/12 09:01:11;;;;;;;16.05;4.40;;;;;;;11.04;70.56;100653.06;5032279;28;20116;-85
2022/10/12 09:04:32;;;;;;;18.30;4.82;;;;;;;11.14;70.88;100646.94;5031239;28;20033;-86
2022/10/12 09:07:18;;;;;;;11.15;4.97;;;;;;;11.18;71.16;100645.38;5030414;28;20450;-85
2022/10/12 09:10:06;;;;;;;9.30;3.60;;;;;;;11.23;71.08;100650.91;5032126;28;20033;-87
2022/10/12 09:12:42;;;;;;;20.25;6.10;;;;;;;11.30;70.35;100650.75;5037181;28;20306;-85
2022/10/12 09:15:31;;;;;;;7.68;3.97;;;;;;;11.31;71.08;100647.78;5051713;28;20064;-85
2022/10/12 09:17:59;;;;;;;9.07;3.50;;;;;;;11.29;70.97;100649.94;5051417;28;20450;-89
2022/10/12 09:20:30;;;;;;;9.23;3.40;;;;;;;11.32;71.00;100638.53;5036274;28;20030;-85
2022/10/12 09:23:32;;;;;;;13.10;5.00;;;;;;;11.38;71.13;100644.91;5029835;28;20057;-87
2022/10/12 09:26:14;;;;;;;11.60;4.50;;;;;;;11.36;72.08;100651.66;5019026;28;20073;-87
2022/10/12 09:28:53;;;;;;;13.98;3.97;;;;;;;11.38;71.17;100635.88;5031551;28;20116;-84
2022/10/12 09:31:45;;;;;;;11.90;4.22;;;;;;;11.42;71.42;100637.03;5030363;28;20029;-84
2022/10/12 09:34:10;;;;;;;12.55;4.00;;;;;;;11.43;71.73;100639.50;5042905;28;20043;-87
2022/10/12 09:36:38;;;;;;;12.10;4.70;;;;;;;11.46;71.48;100643.66;5051170;28;20032;-87
2022/10/12 09:39:11;;;;;;;12.07;5.32;;;;;;;11.55;71.73;100638.59;5050788;28;20543;-86
2022/10/12 09:41:41;;;;;;;12.43;5.35;;;;;;;11.65;71.35;100648.84;5051151;28;20037;-86
2022/10/12 09:44:15;;;;;;;14.02;5.53;;;;;;;11.71;71.18;100639.66;5030094;28;20041;-87
2022/10/12 09:46:47;;;;;;;12.93;4.20;;;;;;;11.76;72.24;100636.97;5031092;28;20460;-87
2022/10/12 09:49:12;;;;;;;12.10;5.38;;;;;;;11.91;70.81;100641.00;5030680;28;20030;-86
2022/10/12 09:51:38;;;;;;;10.82;4.35;;;;;;;12.01;70.15;100638.41;5030544;28;20544;-87
2022/10/12 09:54:04;;;;;;;11.65;5.97;;;;;;;12.00;71.13;100642.22;5029706;28;20057;-88
2022/10/12 09:56:32;;;;;;;10.63;4.85;;;;;;;12.07;71.34;100641.22;5030931;28;20413;-88
2022/10/12 09:59:00;;;;;;;13.75;5.63;;;;;;;12.20;70.71;100635.41;5031086;28;20446;-88
2022/10/12 10:01:37;;;;;;;16.00;6.68;;;;;;;12.26;70.55;100639.84;5031010;28;20053;-85
2022/10/12 10:04:22;;;;;;;12.85;4.50;;;;;;;12.22;70.21;100636.00;5029395;28;20037;-88
2022/10/12 10:06:48;;;;;;;15.60;6.53;;;;;;;12.22;70.08;100633.25;5031209;28;20033;-87
2022/10/12 10:09:25;;;;;;;10.13;5.05;;;;;;;12.24;70.63;100641.19;5030903;28;20018;-85
2022/10/12 10:11:51;;;;;;;10.85;5.03;;;;;;;12.32;70.40;100634.44;5031103;28;20051;-86
2022/10/12 10:14:16;;;;;;;14.17;4.93;;;;;;;12.51;69.61;100639.59;5030508;28;20112;-88
2022/10/12 10:16:49;;;;;;;12.25;3.20;;;;;;;12.62;68.30;100635.88;5031318;28;20257;-90
2022/10/12 10:19:19;;;;;;;9.15;3.60;;;;;;;12.65;68.79;100635.34;5030957;28;20517;-86
2022/10/12 10:21:45;;;;;;;9.20;3.10;;;;;;;12.63;68.55;100632.03;5030840;28;20087;-89
2022/10/12 10:24:22;;;;;;;6.95;3.00;;;;;;;12.70;67.21;100632.69;5030330;28;20420;-88
2022/10/12 10:26:58;;;;;;;5.35;1.70;;;;;;;12.88;64.69;100627.91;5030840;28;20033;-89
2022/10/12 10:29:32;;;;;;;5.78;1.33;;;;;;;12.86;60.82;100627.34;5030811;28;20342;-88
2022/10/12 10:32:25;;;;;;;3.65;1.00;;;;;;;12.91;61.65;100630.16;5030291;28;20044;-87
2022/10/12 10:35:13;;;;;;;4.77;2.73;;;;;;;13.06;62.23;100629.44;5049487;28;20029;-87
2022/10/12 10:37:44;;;;;;;8.80;2.53;;;;;;;13.23;61.16;100630.41;5051203;28;20029;-87
2022/10/12 10:40:21;;;;;;;5.05;1.05;;;;;;;13.28;58.93;100627.72;5050399;28;20462;-86
2022/10/12 10:42:50;;;;;;;5.95;1.67;;;;;;;13.38;60.49;100630.50;5040722;28;20491;-87
2022/10/12 10:45:34;;;;;;;5.63;1.52;;;;;;;13.48;61.41;100623.47;5029350;28;20040;-85
2022/10/12 10:48:08;;;;;;;7.30;2.05;;;;;;;13.53;60.60;100620.75;5030451;28;20053;-86
2022/10/12 10:50:41;;;;;;;9.50;1.50;;;;;;;13.47;59.35;100619.06;5030565;28;20091;-87
2022/10/12 10:53:20;;;;;;;4.60;1.00;;;;;;;13.57;60.76;100616.44;5029570;28;20110;-86
2022/10/12 10:55:55;;;;;;;8.38;2.67;;;;;;;13.77;60.75;100609.41;5030446;28;20057;-87
2022/10/12 10:58:29;;;;;;;7.20;2.10;;;;;;;13.74;59.98;100610.78;5030840;28;20056;-89
2022/10/12 11:01:00;;;;;;;4.97;1.53;;;;;;;13.72;59.73;100607.50;5030711;28;20113;-91
2022/10/12 11:03:32;;;;;;;3.92;1.13;;;;;;;13.81;57.10;100605.06;5029036;28;20627;-88
2022/10/12 11:06:24;;;;;;;7.32;2.05;;;;;;;13.80;58.70;100603.41;5034811;28;20029;-89
2022/10/12 11:08:58;;;;;;;7.07;1.38;;;;;;;13.86;57.73;100602.34;5034609;28;20036;-87
2022/10/12 11:11:28;;;;;;;6.10;1.00;;;;;;;14.05;57.37;100603.81;5034166;28;20033;-87
2022/10/12 11:14:02;;;;;;;4.78;1.00;;;;;;;14.16;56.17;100601.91;5032134;28;20112;-86
2022/10/12 11:16:37;;;;;;;7.75;2.10;;;;;;;14.15;57.66;100597.53;5033302;28;20411;-87
2022/10/12 11:19:21;;;;;;;3.97;1.13;;;;;;;14.53;57.07;100595.44;5033043;28;20053;-86
2022/10/12 11:21:54;;;;;;;6.72;1.33;;;;;;;14.56;57.24;100586.66;5021657;28;20083;-87
2022/10/12 11:24:27;;;;;;;5.82;1.55;;;;;;;14.67;56.61;100586.69;5029647;28;20303;-90
2022/10/12 11:27:05;;;;;;;6.93;1.27;;;;;;;14.73;54.83;100585.59;5025225;28;20036;-87
2022/10/12 11:29:30;;;;;;;4.00;1.55;;;;;;;14.71;55.41;100591.38;5031693;28;20470;-88
2022/10/12 11:32:09;;;;;;;5.45;1.48;;;;;;;14.71;56.70;100593.28;5031832;28;20048;-85
2022/10/12 11:34:53;;;;;;;6.85;1.88;;;;;;;14.66;57.08;100582.31;5033422;28;20034;-87
2022/10/12 11:37:21;;;;;;;;;;;;;;;14.59;57.24;100590.78;5034648;28;20037;-88